Clayhatchee, Alabama
Current Conditions -  °F | °C
As of 4:58 PM on Saturday 20 Dec 2014 (Local Time) from KOZR Reporting Station
Overcast Overcast  
Wind Chill: 55°   Ceiling: 9000
Heat Index: 55°   Visibility: 10mi
Dew Point: 49°   Wind: 8mph
Humidity: 81%   Direction: 30°NNE
Pressure: 30.12"   Gusts: NA
Location:  31.2347°N, 85.7586°W
Report Text: KOZR 202258Z AUTO 03007KT 10SM FEW014 SCT020 OVC090 13/10 A3012 RMK AO2 SLP202 T01260095
Loading
Personal Weather Stations






























Interactive Weather Map New forecast layout! Learn more

10-Day Weather Forecast

Advertisements
Track Severe Weather on mobile